Terminal Aerodrome Forecast
Issued by NWS State College, PA

Home | Current Version | Previous Version | Text Only | Print | Product List | Glossary On
Versions: 1 2 3 4 5 6 7 8 9 10 11 12 13 14 15 16 17 18 19 20 21 22 23 24 25 26 27 28 29 30 31 32 33 34 35 36 37 38 39 40 41 42 43 44 45 46 47 48 49 50
129
FTUS41 KCTP 301731
TAFIPT
TAF
KIPT 301731Z 3018/0118 00000KT 1 1/2SM BR VCSH SCT004 BKN012 OVC020
     FM302300 05002KT 3SM BR OVC015
     FM010400 09005KT 1 1/2SM BR OVC007
     FM010700 12007KT 2SM BR OVC003
     FM010800 12007KT 4SM BR OVC003=

USA.gov is the U.S. government's official web portal to all federal, state and local government web resources and services.